createdAt,value
2022-07-25T00:07:53.844Z,97680
2022-07-25T00:19:53.977Z,97670
2022-07-25T00:31:53.921Z,97660
2022-07-25T00:43:53.921Z,97650
2022-07-25T00:55:53.730Z,97660
2022-07-25T01:07:53.986Z,97650
2022-07-25T01:19:54.060Z,97640
2022-07-25T01:31:53.980Z,97630
2022-07-25T01:43:53.502Z,97610
2022-07-25T01:55:53.501Z,97610
2022-07-25T02:07:53.548Z,97610
2022-07-25T02:19:53.457Z,97600
2022-07-25T02:31:53.816Z,97590
2022-07-25T02:43:53.467Z,97580
2022-07-25T02:55:53.469Z,97570
2022-07-25T03:07:53.458Z,97550
2022-07-25T03:19:53.478Z,97550
2022-07-25T03:31:53.546Z,97530
2022-07-25T03:43:53.472Z,97530
2022-07-25T03:55:53.477Z,97530
2022-07-25T04:07:53.768Z,97510
2022-07-25T04:19:53.468Z,97510
2022-07-25T04:31:53.558Z,97490
2022-07-25T04:43:53.509Z,97470
2022-07-25T04:55:53.481Z,97470
2022-07-25T05:07:53.465Z,97440
2022-07-25T05:19:53.644Z,97440
2022-07-25T05:31:53.525Z,97440
2022-07-25T05:43:53.462Z,97430
2022-07-25T05:55:53.476Z,97430
2022-07-25T06:07:53.462Z,97420
2022-07-25T06:19:53.470Z,97410
2022-07-25T06:31:53.512Z,97400
2022-07-25T06:43:53.457Z,97390
2022-07-25T06:55:53.462Z,97400
2022-07-25T07:07:53.599Z,97390
2022-07-25T07:19:53.845Z,97390
2022-07-25T07:31:53.467Z,97380
2022-07-25T07:43:53.434Z,97360
2022-07-25T07:55:53.455Z,97350
2022-07-25T08:07:53.447Z,97350
2022-07-25T08:19:53.553Z,97350
2022-07-25T08:31:53.487Z,97330
2022-07-25T08:43:53.451Z,97330
2022-07-25T08:55:53.464Z,97320
2022-07-25T09:07:53.460Z,97320
2022-07-25T09:19:53.581Z,97330
2022-07-25T09:31:53.419Z,97330
2022-07-25T09:43:53.645Z,97300
2022-07-25T09:55:53.727Z,97300
2022-07-25T10:07:54.034Z,97300
2022-07-25T10:19:58.562Z,97310
2022-07-25T10:31:53.465Z,97310
2022-07-25T10:43:53.535Z,97320
2022-07-25T10:56:05.343Z,97330
2022-07-25T11:08:18.906Z,97330
2022-07-25T11:19:53.452Z,97340
2022-07-25T11:31:53.520Z,97350
2022-07-25T11:43:53.788Z,97360
2022-07-25T11:55:53.432Z,97390
2022-07-25T12:07:53.464Z,97370
2022-07-25T12:19:53.557Z,97380
2022-07-25T12:31:53.463Z,97330
2022-07-25T12:43:53.505Z,97310
2022-07-25T12:55:53.755Z,97310
2022-07-25T13:07:55.471Z,97300
2022-07-25T13:19:53.648Z,97280
2022-07-25T13:31:53.880Z,97260
2022-07-25T13:43:53.487Z,97250
2022-07-25T13:55:53.597Z,97270
2022-07-25T14:07:53.663Z,97280
2022-07-25T14:19:53.891Z,97310
2022-07-25T14:31:53.753Z,97330
2022-07-25T14:43:53.616Z,97340
2022-07-25T14:55:53.731Z,97340
2022-07-25T15:07:53.570Z,97350
2022-07-25T15:19:53.511Z,97340
2022-07-25T15:31:53.935Z,97360
2022-07-25T15:43:53.564Z,97350
2022-07-25T15:55:53.672Z,97350
2022-07-25T16:07:53.599Z,97370
2022-07-25T16:19:53.619Z,97390
2022-07-25T16:31:53.834Z,97430
2022-07-25T16:43:53.849Z,97430
2022-07-25T16:55:53.686Z,97460
2022-07-25T17:07:58.968Z,97480
2022-07-25T17:19:56.680Z,97490
2022-07-25T17:31:53.888Z,97500
2022-07-25T17:43:53.759Z,97510
2022-07-25T17:55:53.873Z,97500
2022-07-25T18:07:53.708Z,97510
2022-07-25T18:19:53.950Z,97510
2022-07-25T18:31:53.540Z,97510
2022-07-25T18:43:53.538Z,97520
2022-07-25T18:55:53.529Z,97520
2022-07-25T19:07:53.753Z,97530
2022-07-25T19:19:53.991Z,97540
2022-07-25T19:31:53.906Z,97570
2022-07-25T19:43:53.925Z,97590
2022-07-25T19:55:54.116Z,97590
2022-07-25T20:07:53.988Z,97610
2022-07-25T20:19:53.719Z,97620
2022-07-25T20:31:53.834Z,97640
2022-07-25T20:43:53.920Z,97650
2022-07-25T20:55:53.909Z,97660
2022-07-25T21:07:54.003Z,97680
2022-07-25T21:19:53.928Z,97700
2022-07-25T21:31:54.353Z,97720
2022-07-25T21:43:53.660Z,97730
2022-07-25T21:55:53.940Z,97750
2022-07-25T22:07:53.674Z,97760
2022-07-25T22:19:53.818Z,97780
2022-07-25T22:31:53.999Z,97780
2022-07-25T22:43:57.325Z,97780
2022-07-25T22:55:53.683Z,97800
2022-07-25T23:07:53.678Z,97810
2022-07-25T23:19:54.007Z,97810
2022-07-25T23:31:53.750Z,97800
2022-07-25T23:43:56.497Z,97800
2022-07-25T23:55:53.675Z,97800
